createdAt,value
2018-11-26T00:01:04.304Z,98875.09
2018-11-26T00:07:09.137Z,98883.80
2018-11-26T00:13:14.010Z,98882.00
2018-11-26T00:19:18.634Z,98893.00
2018-11-26T00:25:23.304Z,98898.75
2018-11-26T00:31:28.344Z,98906.21
2018-11-26T00:37:32.940Z,98898.67
2018-11-26T00:43:37.598Z,98893.77
2018-11-26T00:49:42.215Z,98889.61
2018-11-26T00:55:46.813Z,98895.66
2018-11-26T01:01:52.110Z,98889.92
2018-11-26T01:07:56.683Z,98887.70
2018-11-26T01:14:01.580Z,98871.23
2018-11-26T01:20:06.845Z,98880.36
2018-11-26T01:26:11.781Z,98871.11
2018-11-26T01:32:16.380Z,98859.16
2018-11-26T01:38:21.032Z,98862.31
2018-11-26T01:44:25.666Z,98859.42
2018-11-26T01:50:30.303Z,98854.39
2018-11-26T01:56:34.920Z,98856.23
2018-11-26T02:02:39.520Z,98845.91
2018-11-26T02:08:44.951Z,98840.02
2018-11-26T02:14:49.545Z,98849.86
2018-11-26T02:20:54.206Z,98839.45
2018-11-26T02:26:59.440Z,98847.74
2018-11-26T02:33:04.159Z,98847.74
2018-11-26T02:39:08.996Z,98849.86
2018-11-26T02:45:13.659Z,98837.08
2018-11-26T02:51:18.689Z,98832.58
2018-11-26T02:57:23.274Z,98827.70
2018-11-26T03:03:27.903Z,98841.47
2018-11-26T03:09:32.877Z,98834.48
2018-11-26T03:15:37.485Z,98836.53
2018-11-26T03:21:42.071Z,98831.16
2018-11-26T03:27:46.715Z,98825.58
2018-11-26T03:33:51.652Z,98822.77
2018-11-26T03:39:56.267Z,98822.03
2018-11-26T03:46:00.868Z,98837.39
2018-11-26T03:52:05.717Z,98826.69
2018-11-26T03:58:10.328Z,98827.16
2018-11-26T04:04:14.990Z,98833.05
2018-11-26T04:10:19.884Z,98832.55
2018-11-26T04:16:25.075Z,98844.19
2018-11-26T04:22:29.677Z,98840.81
2018-11-26T04:28:34.336Z,98833.16
2018-11-26T04:34:38.961Z,98831.80
2018-11-26T04:40:44.053Z,98842.22
2018-11-26T04:46:49.189Z,98839.44
2018-11-26T04:52:54.198Z,98832.60
2018-11-26T04:58:59.150Z,98836.14
2018-11-26T05:05:04.113Z,98831.38
2018-11-26T05:11:09.083Z,98833.37
2018-11-26T05:17:14.072Z,98832.89
2018-11-26T05:23:19.243Z,98831.47
2018-11-26T05:29:24.269Z,98836.09
2018-11-26T05:35:29.247Z,98844.89
2018-11-26T05:41:34.251Z,98848.53
2018-11-26T05:47:39.237Z,98848.81
2018-11-26T05:53:44.202Z,98857.61
2018-11-26T05:59:49.098Z,98847.05
2018-11-26T06:05:54.074Z,98844.09
2018-11-26T06:11:58.980Z,98851.91
2018-11-26T06:18:03.969Z,98861.34
2018-11-26T06:24:08.759Z,98868.96
2018-11-26T06:30:15.101Z,98859.93
2018-11-26T06:36:20.033Z,98866.30
2018-11-26T06:42:24.729Z,98885.05
2018-11-26T06:48:29.334Z,98887.63
2018-11-26T06:54:34.879Z,98885.27
2018-11-26T07:00:39.757Z,98883.80
2018-11-26T07:06:44.549Z,98894.83
2018-11-26T07:12:49.103Z,98904.20
2018-11-26T07:18:53.693Z,98911.90
2018-11-26T07:24:58.278Z,98914.23
2018-11-26T07:31:03.577Z,98904.43
2018-11-26T07:37:13.138Z,98912.20
2018-11-26T07:43:17.943Z,98907.31
2018-11-26T07:49:23.414Z,98914.02
2018-11-26T07:55:27.119Z,98918.27
2018-11-26T08:01:31.695Z,98922.58
2018-11-26T08:07:36.995Z,98925.08
2018-11-26T08:13:41.955Z,98933.59
2018-11-26T08:19:47.205Z,98936.22
2018-11-26T08:25:53.891Z,98941.37
2018-11-26T08:31:58.793Z,98948.45
2018-11-26T08:38:08.010Z,98945.69
2018-11-26T08:44:12.981Z,98939.43
2018-11-26T08:50:17.964Z,98942.27
2018-11-26T08:56:22.853Z,98947.09
2018-11-26T09:02:33.402Z,98948.06
2018-11-26T09:08:38.963Z,98953.95
2018-11-26T09:14:45.047Z,98957.20
2018-11-26T09:20:50.304Z,98955.64
2018-11-26T09:26:55.261Z,98965.63
2018-11-26T09:33:00.213Z,98962.45
2018-11-26T09:39:12.331Z,98963.14
2018-11-26T09:45:19.001Z,98966.66
2018-11-26T09:51:23.670Z,98972.97
2018-11-26T09:57:28.259Z,98974.61
2018-11-26T10:03:32.804Z,98969.86
2018-11-26T10:09:37.386Z,98966.55
2018-11-26T10:15:42.245Z,98960.00
2018-11-26T10:21:47.213Z,98959.45
2018-11-26T10:27:51.818Z,98951.31
2018-11-26T10:33:56.471Z,98955.30
2018-11-26T10:40:01.039Z,98961.78
2018-11-26T10:46:06.314Z,98962.45
2018-11-26T10:52:10.876Z,98976.47
2018-11-26T10:58:15.435Z,98979.56
2018-11-26T11:04:20.363Z,98974.06
2018-11-26T11:12:57.466Z,98983.94
2018-11-26T11:19:02.183Z,98985.39
2018-11-26T11:25:08.449Z,98989.66
2018-11-26T11:31:13.124Z,98981.61
2018-11-26T11:37:18.052Z,98989.25
2018-11-26T11:43:22.793Z,98997.80
2018-11-26T11:49:27.496Z,98994.98
2018-11-26T11:55:32.467Z,98989.67
2018-11-26T12:01:37.236Z,98983.70
2018-11-26T12:07:41.885Z,98990.34
2018-11-26T12:13:46.545Z,98990.06
2018-11-26T12:19:51.872Z,98984.80
2018-11-26T12:25:57.196Z,98972.41
2018-11-26T12:32:01.926Z,98976.12
2018-11-26T12:38:06.611Z,98970.83
2018-11-26T12:44:11.342Z,98966.07
2018-11-26T12:50:16.026Z,98962.72
2018-11-26T12:56:20.824Z,98974.87
2018-11-26T13:02:25.442Z,98971.13
2018-11-26T13:08:30.209Z,98979.75
2018-11-26T13:14:34.958Z,98977.31
2018-11-26T13:20:39.645Z,98984.16
2018-11-26T13:26:44.369Z,98988.02
2018-11-26T13:32:51.062Z,98991.47
2018-11-26T13:38:56.021Z,98992.17
2018-11-26T13:45:00.738Z,98997.73
2018-11-26T13:51:06.092Z,99003.33
2018-11-26T13:57:10.712Z,99008.75
2018-11-26T14:03:15.436Z,99006.00
2018-11-26T14:09:20.816Z,98998.94
2018-11-26T14:15:25.898Z,98997.98
2018-11-26T14:21:30.579Z,99010.70
2018-11-26T14:27:35.605Z,99014.18
2018-11-26T14:33:40.308Z,99017.36
2018-11-26T14:39:44.952Z,99029.99
2018-11-26T14:45:49.627Z,99025.89
2018-11-26T14:51:54.320Z,99031.41
2018-11-26T14:57:59.022Z,99038.04
2018-11-26T15:04:03.726Z,99048.16
2018-11-26T15:10:17.713Z,99037.88
2018-11-26T15:16:23.196Z,99033.89
2018-11-26T15:22:28.198Z,99039.03
2018-11-26T15:28:33.493Z,99038.33
2018-11-26T15:34:38.180Z,99047.08
2018-11-26T15:40:43.643Z,99053.38
2018-11-26T15:46:48.878Z,99071.09
2018-11-26T15:52:53.679Z,99072.20
2018-11-26T15:58:58.410Z,99085.22
2018-11-26T16:05:03.108Z,99081.01
2018-11-26T16:11:07.924Z,99085.70
2018-11-26T16:17:12.548Z,99081.25
2018-11-26T16:23:17.254Z,99094.20
2018-11-26T16:29:21.956Z,99107.43
2018-11-26T16:35:30.811Z,99112.14
2018-11-26T16:41:36.142Z,99124.58
2018-11-26T16:47:40.892Z,99128.80
2018-11-26T16:53:46.247Z,99129.24
2018-11-26T16:59:50.887Z,99130.77
2018-11-26T17:05:56.279Z,99144.32
2018-11-26T17:12:01.875Z,99153.45
2018-11-26T17:18:08.221Z,99156.76
2018-11-26T17:24:12.874Z,99169.81
2018-11-26T17:30:25.986Z,99177.19
2018-11-26T17:36:31.320Z,99177.55
2018-11-26T17:42:35.969Z,99180.56
2018-11-26T17:48:41.209Z,99181.63
2018-11-26T17:54:45.861Z,99183.94
2018-11-26T18:01:28.029Z,99195.10
2018-11-26T18:07:32.689Z,99202.25
2018-11-26T18:13:37.343Z,99207.55
2018-11-26T18:19:42.043Z,99214.55
2018-11-26T18:25:47.551Z,99212.20
2018-11-26T18:31:52.539Z,99226.63
2018-11-26T18:37:57.204Z,99226.61
2018-11-26T18:44:01.991Z,99240.59
2018-11-26T18:50:10.990Z,99238.94
2018-11-26T18:56:15.672Z,99237.48
2018-11-26T19:02:20.375Z,99236.30
2018-11-26T19:08:25.707Z,99241.92
2018-11-26T19:14:30.527Z,99245.61
2018-11-26T19:20:35.622Z,99256.27
2018-11-26T19:26:41.180Z,99252.30
2018-11-26T19:32:46.879Z,99250.62
2018-11-26T19:38:51.591Z,99251.72
2018-11-26T19:44:56.390Z,99257.90
2018-11-26T19:51:01.554Z,99256.96
2018-11-26T19:57:06.972Z,99260.05
2018-11-26T20:04:24.597Z,99267.58
2018-11-26T20:10:29.822Z,99279.34
2018-11-26T20:16:40.420Z,99281.19
2018-11-26T20:22:45.129Z,99285.73
2018-11-26T20:28:50.308Z,99294.36
2018-11-26T20:34:54.966Z,99305.28
2018-11-26T20:40:59.726Z,99303.97
2018-11-26T20:47:04.483Z,99305.16
2018-11-26T20:53:10.428Z,99308.36
2018-11-26T20:59:15.458Z,99316.80
2018-11-26T21:05:21.469Z,99317.34
2018-11-26T21:11:27.078Z,99323.47
2018-11-26T21:17:33.096Z,99321.52
2018-11-26T21:23:38.486Z,99324.21
2018-11-26T21:29:44.472Z,99327.81
2018-11-26T21:35:49.842Z,99330.79
2018-11-26T21:41:55.289Z,99338.72
2018-11-26T21:48:00.583Z,99340.91
2018-11-26T21:54:06.592Z,99347.89
2018-11-26T22:00:24.463Z,99343.38
2018-11-26T22:06:30.115Z,99348.31
2018-11-26T22:12:35.395Z,99349.89
2018-11-26T22:18:40.732Z,99352.52
2018-11-26T22:24:46.107Z,99361.23
2018-11-26T22:30:51.447Z,99363.63
2018-11-26T22:36:56.843Z,99371.72
2018-11-26T22:43:01.590Z,99362.91
2018-11-26T22:49:06.682Z,99362.39
2018-11-26T22:55:14.121Z,99369.37
2018-11-26T23:01:19.143Z,99370.45
2018-11-26T23:07:24.387Z,99373.70
2018-11-26T23:13:29.076Z,99378.22
2018-11-26T23:19:34.424Z,99376.63
2018-11-26T23:25:39.475Z,99379.83
2018-11-26T23:31:44.703Z,99382.59
2018-11-26T23:37:49.501Z,99375.39
2018-11-26T23:43:54.458Z,99377.31
2018-11-26T23:49:59.168Z,99378.47
2018-11-26T23:56:04.682Z,99384.27
